sensor_id;sensor_type;location;lat;lon;timestamp;pressure;altitude;pressure_sealevel;temperature;humidity
79316;BME280;68779;50.036;19.964;2023-06-14T00:12:40;101610.95;;;14.96;68.93
79316;BME280;68779;50.036;19.964;2023-06-14T00:42:54;101596.62;;;15.19;69.16
79316;BME280;68779;50.036;19.964;2023-06-14T01:13:18;101580.59;;;14.62;72.47
79316;BME280;68779;50.036;19.964;2023-06-14T01:43:35;101555.87;;;14.54;72.41
79316;BME280;68779;50.036;19.964;2023-06-14T02:13:49;101558.21;;;14.94;71.78
79316;BME280;68779;50.036;19.964;2023-06-14T02:44:04;101554.12;;;15.15;71.31
79316;BME280;68779;50.036;19.964;2023-06-14T03:14:18;101554.83;;;15.00;71.34
79316;BME280;68779;50.036;19.964;2023-06-14T03:44:34;101558.84;;;14.60;73.04
79316;BME280;68779;50.036;19.964;2023-06-14T04:14:51;101566.44;;;14.66;72.00
79316;BME280;68779;50.036;19.964;2023-06-14T04:45:09;101581.45;;;14.26;74.29
79316;BME280;68779;50.036;19.964;2023-06-14T05:15:25;101589.53;;;14.18;75.24
79316;BME280;68779;50.036;19.964;2023-06-14T05:45:41;101594.84;;;14.38;74.73
79316;BME280;68779;50.036;19.964;2023-06-14T06:15:55;101608.67;;;14.91;72.91
79316;BME280;68779;50.036;19.964;2023-06-14T06:46:12;101637.93;;;15.35;71.82
79316;BME280;68779;50.036;19.964;2023-06-14T07:16:32;101650.77;;;15.88;71.99
79316;BME280;68779;50.036;19.964;2023-06-14T07:46:48;101685.16;;;15.82;75.98
79316;BME280;68779;50.036;19.964;2023-06-14T08:17:03;101675.26;;;16.33;74.96
79316;BME280;68779;50.036;19.964;2023-06-14T08:47:22;101686.36;;;16.74;75.04
79316;BME280;68779;50.036;19.964;2023-06-14T09:17:44;101707.94;;;17.45;73.27
79316;BME280;68779;50.036;19.964;2023-06-14T10:04:06;101704.34;;;16.95;75.38
79316;BME280;68779;50.036;19.964;2023-06-14T10:34:25;101724.77;;;17.42;74.19
79316;BME280;68779;50.036;19.964;2023-06-14T11:04:49;101693.94;;;18.21;72.43
79316;BME280;68779;50.036;19.964;2023-06-14T11:35:06;101688.95;;;18.16;72.70
79316;BME280;68779;50.036;19.964;2023-06-14T12:05:21;101648.89;;;20.95;65.55
79316;BME280;68779;50.036;19.964;2023-06-14T12:35:38;101643.66;;;20.42;59.58
79316;BME280;68779;50.036;19.964;2023-06-14T13:05:52;101612.27;;;23.70;53.19
79316;BME280;68779;50.036;19.964;2023-06-14T13:36:05;101596.95;;;25.48;48.19
79316;BME280;68779;50.036;19.964;2023-06-14T14:06:22;101603.34;;;24.14;48.90
79316;BME280;68779;50.036;19.964;2023-06-14T14:36:38;101624.01;;;20.95;56.21
79316;BME280;68779;50.036;19.964;2023-06-14T15:06:57;101616.01;;;19.67;58.82
79316;BME280;68779;50.036;19.964;2023-06-14T15:37:13;101616.73;;;19.38;60.28
79316;BME280;68779;50.036;19.964;2023-06-14T16:07:26;101601.35;;;20.56;56.79
79316;BME280;68779;50.036;19.964;2023-06-14T16:37:43;101616.38;;;19.64;58.21
79316;BME280;68779;50.036;19.964;2023-06-14T17:08:03;101648.35;;;18.02;65.57
79316;BME280;68779;50.036;19.964;2023-06-14T17:38:26;101655.73;;;18.50;64.52
79316;BME280;68779;50.036;19.964;2023-06-14T18:08:46;101669.00;;;18.14;64.55
79316;BME280;68779;50.036;19.964;2023-06-14T18:39:02;101698.42;;;17.89;65.86
79316;BME280;68779;50.036;19.964;2023-06-14T19:09:20;101720.26;;;17.25;68.85
79316;BME280;68779;50.036;19.964;2023-06-14T19:39:36;101739.17;;;16.60;71.38
79316;BME280;68779;50.036;19.964;2023-06-14T20:09:52;101752.29;;;16.31;72.15
79316;BME280;68779;50.036;19.964;2023-06-14T21:10:33;101761.73;;;15.76;72.39
79316;BME280;68779;50.036;19.964;2023-06-14T21:40:48;101759.02;;;15.21;74.00
79316;BME280;68779;50.036;19.964;2023-06-14T22:11:03;101751.92;;;14.92;74.41
79316;BME280;68779;50.036;19.964;2023-06-14T22:41:22;101739.91;;;14.75;74.78
79316;BME280;68779;50.036;19.964;2023-06-14T23:11:39;101750.66;;;14.30;75.73
79316;BME280;68779;50.036;19.964;2023-06-14T23:41:56;101733.40;;;14.11;75.14
